Time;durP1;ratioP1;P1;durP2;ratioP2;P2;SDS_P1;SDS_P2;PMS_P1;PMS_P2;Temp;Humidity;BMP_temperature;BMP_pressure;BME280_temperature;BME280_humidity;BME280_pressure;Samples;Min_cycle;Max_cycle;Signal;HPM_P1;HPM_P2
2021/06/01 08:40:06;;;;;;;6.30;3.50;;;;;;;14.82;42.68;95704.00;4927281;29;19969;-66
2021/06/01 08:42:36;;;;;;;7.88;3.40;;;;;;;14.90;42.96;95700.69;4914376;28;20497;-66
2021/06/01 08:51:21;;;;;;;5.20;3.80;;;;;;;15.23;41.84;95692.66;4857067;29;20066;-68
2021/06/01 08:53:48;;;;;;;7.43;3.70;;;;;;;15.39;42.04;95701.13;4791921;29;20055;-65
2021/06/01 08:56:15;;;;;;;7.28;3.92;;;;;;;15.27;43.06;95698.16;4778025;30;20047;-65
2021/06/01 08:58:42;;;;;;;8.02;3.25;;;;;;;15.29;43.33;95702.09;4786848;29;20108;-66
2021/06/01 09:01:10;;;;;;;8.43;3.50;;;;;;;15.45;40.42;95699.16;4800352;29;20502;-65
2021/06/01 09:03:36;;;;;;;3.72;3.05;;;;;;;15.50;41.11;95696.38;4786098;30;20051;-66
2021/06/01 09:06:16;;;;;;;7.65;3.58;;;;;;;15.81;41.86;95695.78;4786248;29;20055;-66
2021/06/01 09:22:29;;;;;;;5.82;3.78;;;;;;;16.25;38.62;95686.34;4793971;29;20418;-65
2021/06/01 09:25:05;;;;;;;4.10;3.13;;;;;;;16.28;39.02;95675.09;4785892;29;20059;-65
2021/06/01 09:27:45;;;;;;;5.22;3.70;;;;;;;16.27;40.12;95676.19;4785332;29;20047;-65
2021/06/01 09:30:36;;;;;;;6.20;4.10;;;;;;;16.25;39.12;95667.75;4784892;30;20059;-65
2021/06/01 09:33:03;;;;;;;7.30;3.65;;;;;;;16.32;39.09;95665.47;4772013;30;20092;-65
2021/06/01 09:35:53;;;;;;;4.30;3.45;;;;;;;16.39;38.71;95657.84;4767885;30;20051;-65
2021/06/01 09:38:21;;;;;;;5.03;3.53;;;;;;;16.39;39.30;95652.53;4780364;30;20054;-65
2021/06/01 09:41:00;;;;;;;7.20;3.92;;;;;;;16.58;38.56;95648.91;4775617;29;20043;-65
2021/06/01 09:43:26;;;;;;;8.57;3.90;;;;;;;16.84;38.27;95666.84;4769265;30;20118;-65
2021/06/01 09:45:52;;;;;;;18.80;3.90;;;;;;;17.03;37.23;95653.38;4777558;29;20108;-65
2021/06/01 09:48:18;;;;;;;9.35;3.90;;;;;;;17.26;37.06;95652.19;4786218;30;20060;-65
2021/06/01 09:53:31;;;;;;;4.40;3.45;;;;;;;17.33;38.58;95657.06;4809562;29;20360;-65
2021/06/01 09:55:58;;;;;;;5.78;3.80;;;;;;;17.40;36.95;95652.06;4843513;29;20056;-65
2021/06/01 09:58:33;;;;;;;5.30;3.72;;;;;;;17.66;36.42;95654.78;4840743;29;20065;-65
2021/06/01 10:01:00;;;;;;;6.05;3.60;;;;;;;17.78;37.89;95640.84;4849532;29;20050;-68
2021/06/01 10:03:35;;;;;;;5.25;3.53;;;;;;;17.89;37.03;95644.00;4852814;29;20049;-66
2021/06/01 10:06:01;;;;;;;8.02;3.83;;;;;;;17.80;35.75;95644.00;4857910;29;20053;-66
2021/06/01 10:08:28;;;;;;;4.25;3.40;;;;;;;17.95;35.80;95644.66;4857746;29;20053;-66
2021/06/01 10:10:55;;;;;;;6.00;3.80;;;;;;;18.50;36.71;95633.34;4857893;29;20045;-65
2021/06/01 10:13:23;;;;;;;9.40;3.60;;;;;;;18.53;35.77;95638.03;4858718;29;20060;-65
2021/06/01 10:15:54;;;;;;;4.55;3.08;;;;;;;18.98;35.83;95636.06;4857325;29;20076;-64
2021/06/01 10:18:20;;;;;;;5.95;3.50;;;;;;;19.08;35.46;95634.88;4857253;29;21468;-66
2021/06/01 10:20:48;;;;;;;5.50;3.30;;;;;;;19.48;34.77;95627.31;4860222;29;20053;-65
2021/06/01 10:23:20;;;;;;;4.30;3.42;;;;;;;19.78;33.67;95629.94;4857857;29;20048;-66
2021/06/01 10:25:46;;;;;;;5.20;3.30;;;;;;;19.58;33.44;95630.72;4859604;29;20096;-67
2021/06/01 10:28:11;;;;;;;5.43;3.60;;;;;;;19.65;34.37;95636.31;4858647;29;20077;-66
2021/06/01 10:30:41;;;;;;;6.47;3.80;;;;;;;20.69;33.94;95625.91;4858624;29;20061;-66
2021/06/01 10:33:13;;;;;;;5.85;4.00;;;;;;;20.44;31.56;95617.78;4859254;29;20113;-66
2021/06/01 10:35:48;;;;;;;4.63;3.80;;;;;;;20.10;30.95;95626.88;4857964;29;20538;-66
2021/06/01 10:44:18;;;;;;;6.55;3.40;;;;;;;23.29;27.23;95621.34;4858227;29;20404;-69
2021/06/01 10:52:24;;;;;;;5.10;3.40;;;;;;;24.58;26.12;95608.97;4837969;29;20527;-68
2021/06/01 10:55:08;;;;;;;5.57;3.60;;;;;;;23.77;27.17;95607.81;4824900;29;20054;-67
2021/06/01 10:57:57;;;;;;;5.55;3.40;;;;;;;22.85;27.57;95608.00;4822273;29;20051;-66
2021/06/01 11:03:17;;;;;;;6.72;3.53;;;;;;;24.21;27.28;95606.78;4822948;29;20156;-65
2021/06/01 11:05:59;;;;;;;4.40;3.22;;;;;;;24.94;26.71;95593.50;4821267;29;20469;-66
2021/06/01 11:08:36;;;;;;;6.78;3.22;;;;;;;26.83;23.47;95594.69;4820291;29;20058;-67
2021/06/01 11:11:39;;;;;;;4.05;3.08;;;;;;;26.27;24.06;95589.88;4821274;29;20054;-63
2021/06/01 11:14:31;;;;;;;8.68;3.33;;;;;;;23.82;25.46;95593.31;4836225;29;20073;-66
2021/06/01 11:16:58;;;;;;;4.80;3.38;;;;;;;24.29;25.07;95589.63;4818307;29;20054;-66
2021/06/01 11:19:31;;;;;;;6.15;3.33;;;;;;;25.10;25.75;95576.41;4819756;29;20046;-66
2021/06/01 11:22:04;;;;;;;6.00;3.63;;;;;;;23.89;25.10;95582.72;4804965;29;20596;-66
2021/06/01 11:35:23;;;;;;;7.30;3.13;;;;;;;26.96;22.16;95571.66;4812489;29;20046;-66
2021/06/01 11:38:10;;;;;;;4.95;3.13;;;;;;;25.21;22.15;95577.34;4818619;29;20127;-66
2021/06/01 11:43:14;;;;;;;4.90;3.13;;;;;;;25.85;22.37;95568.59;4818529;29;20146;-65
2021/06/01 11:46:11;;;;;;;5.85;3.15;;;;;;;26.25;22.83;95567.16;4817710;29;20054;-65
2021/06/01 11:51:22;;;;;;;4.35;3.35;;;;;;;27.79;20.83;95569.47;4830406;29;20531;-66
2021/06/01 11:54:04;;;;;;;7.35;3.20;;;;;;;27.58;20.84;95572.84;4841032;29;20136;-65
2021/06/01 11:56:42;;;;;;;6.28;3.42;;;;;;;27.37;22.03;95563.47;4840697;29;20186;-67
2021/06/01 12:20:41;;;;;;;;;;;;;;;28.66;21.35;95529.91;4841735;29;20065;-67
2021/06/01 12:23:23;;;;;;;4.35;2.78;;;;;;;30.13;17.71;95533.44;4841811;29;19924;-66
2021/06/01 12:26:10;;;;;;;5.55;2.80;;;;;;;29.64;18.36;95520.47;4840267;29;20054;-67
2021/06/01 12:32:07;;;;;;;5.18;2.70;;;;;;;27.54;21.31;95524.19;4839138;29;20054;-71
2021/06/01 12:46:04;;;;;;;5.82;3.00;;;;;;;29.95;18.60;95509.13;4840337;29;20415;-65
2021/06/01 13:20:46;;;;;;;6.20;2.63;;;;;;;28.82;18.28;95497.81;4803595;29;20106;-64
2021/06/01 13:37:39;;;;;;;4.18;2.50;;;;;;;29.53;18.45;95466.28;4803556;29;20124;-67
2021/06/01 13:46:13;;;;;;;5.50;2.83;;;;;;;28.30;18.10;95464.91;4798989;29;20046;-65
2021/06/01 13:56:19;;;;;;;5.65;3.30;;;;;;;28.14;19.11;95468.78;4821771;29;20065;-65
2021/06/01 16:12:19;;;;;;;2.90;2.17;;;;;;;21.42;25.63;95384.22;4824223;29;20069;-67
2021/06/01 16:23:06;;;;;;;3.03;2.30;;;;;;;20.89;27.15;95386.22;4821969;29;20065;-66
2021/06/01 16:42:01;;;;;;;5.03;2.30;;;;;;;20.41;29.34;95393.94;4841429;29;20133;-67
2021/06/01 17:03:28;;;;;;;3.17;2.15;;;;;;;19.64;28.03;95389.16;4821192;29;20098;-66
2021/06/01 17:06:04;;;;;;;4.07;2.50;;;;;;;19.59;30.49;95392.06;4820391;29;20580;-66
2021/06/01 17:09:02;;;;;;;5.28;2.85;;;;;;;19.65;29.53;95391.53;4833327;29;20146;-66
2021/06/01 17:11:35;;;;;;;3.55;2.25;;;;;;;19.54;29.02;95401.81;4820514;29;20054;-66
2021/06/01 17:14:02;;;;;;;3.47;2.20;;;;;;;19.54;29.53;95385.81;4820392;29;20461;-66
2021/06/01 17:16:54;;;;;;;5.40;2.35;;;;;;;19.45;29.99;95393.13;4819408;29;20050;-66
2021/06/01 17:30:42;;;;;;;2.97;2.47;;;;;;;19.19;30.65;95396.81;4818907;29;19925;-67
2021/06/01 17:36:00;;;;;;;;;;;;;;;19.02;31.45;95391.59;4818786;29;20493;-66
2021/06/01 17:38:27;;;;;;;4.18;2.38;;;;;;;18.98;30.01;95396.06;4826794;29;19925;-66
2021/06/01 17:40:56;;;;;;;3.80;2.40;;;;;;;18.92;30.73;95392.00;4822147;29;20046;-67
2021/06/01 17:43:27;;;;;;;5.45;2.38;;;;;;;18.83;30.55;95394.69;4833677;29;20077;-67
2021/06/01 17:45:54;;;;;;;4.55;2.60;;;;;;;18.81;31.15;95397.69;4826112;29;20042;-67
2021/06/01 17:48:36;;;;;;;6.65;2.40;;;;;;;18.66;32.25;95403.59;4821880;29;20050;-67
2021/06/01 17:51:07;;;;;;;8.57;2.33;;;;;;;18.44;32.59;95400.13;4821088;29;20400;-67
2021/06/01 17:53:41;;;;;;;3.85;2.35;;;;;;;18.33;32.45;95404.25;4835256;29;20402;-67
2021/06/01 17:56:07;;;;;;;3.90;2.47;;;;;;;18.32;32.97;95400.03;4835558;29;20134;-67
2021/06/01 17:58:33;;;;;;;7.82;2.63;;;;;;;18.15;34.22;95399.00;4817922;29;20515;-66
2021/06/01 18:00:59;;;;;;;4.35;2.47;;;;;;;18.09;33.94;95400.31;4821647;29;20144;-67
2021/06/01 18:03:25;;;;;;;5.03;2.50;;;;;;;17.97;33.77;95394.84;4821371;29;20050;-67
2021/06/01 18:05:53;;;;;;;7.97;2.35;;;;;;;17.79;35.88;95397.56;4821360;29;20051;-67
2021/06/01 19:24:41;;;;;;;3.47;2.38;;;;;;;14.28;47.65;95436.94;4827428;29;20069;-68
2021/06/01 19:51:53;;;;;;;3.97;2.70;;;;;;;12.70;51.76;95444.47;4831492;29;20446;-68
2021/06/01 19:54:22;;;;;;;4.95;3.10;;;;;;;12.60;52.19;95445.38;4838225;29;20079;-68
2021/06/01 19:56:49;;;;;;;6.00;2.83;;;;;;;12.51;52.14;95441.78;4822680;29;20046;-68
2021/06/01 19:59:16;;;;;;;4.25;2.72;;;;;;;12.49;53.32;95438.63;4825127;29;20453;-67
2021/06/01 20:01:42;;;;;;;6.60;2.90;;;;;;;12.37;53.46;95441.69;4824812;29;20664;-67
2021/06/01 20:04:08;;;;;;;5.57;2.75;;;;;;;12.26;53.27;95441.00;4824275;29;20409;-68
2021/06/01 20:06:34;;;;;;;6.32;3.10;;;;;;;12.19;54.14;95445.84;4823152;29;20552;-68
2021/06/01 20:09:00;;;;;;;5.22;3.08;;;;;;;12.06;54.33;95447.28;4823891;29;20150;-68
2021/06/01 20:11:26;;;;;;;8.60;3.00;;;;;;;12.05;55.15;95440.47;4825627;29;20050;-67
2021/06/01 20:13:52;;;;;;;4.78;3.10;;;;;;;11.94;55.64;95439.75;4830316;29;20054;-70
2021/06/01 20:16:23;;;;;;;6.43;3.58;;;;;;;11.82;55.67;95439.31;4822783;29;20042;-70
2021/06/01 20:18:50;;;;;;;5.80;3.17;;;;;;;11.71;56.48;95437.84;4824021;29;20047;-70
2021/06/01 20:21:17;;;;;;;6.20;3.10;;;;;;;11.65;56.41;95441.59;4837112;29;20054;-70
2021/06/01 20:23:43;;;;;;;7.50;3.65;;;;;;;11.56;56.43;95439.53;4834013;29;20038;-70
2021/06/01 20:26:13;;;;;;;5.57;3.28;;;;;;;11.65;56.74;95441.59;4831241;29;20532;-70
2021/06/01 20:28:46;;;;;;;6.45;3.30;;;;;;;11.59;56.78;95444.28;4823098;29;20043;-70
2021/06/01 20:31:18;;;;;;;6.22;3.70;;;;;;;11.52;57.07;95443.81;4836918;29;20107;-70
2021/06/01 20:33:44;;;;;;;5.65;3.25;;;;;;;11.49;57.50;95448.84;4822776;29;20183;-70
2021/06/01 20:36:10;;;;;;;4.40;2.97;;;;;;;11.45;57.54;95448.63;4822797;29;20051;-67
2021/06/01 20:38:36;;;;;;;4.80;3.30;;;;;;;11.33;57.61;95440.28;4818956;29;20684;-69
2021/06/01 20:41:03;;;;;;;5.13;3.15;;;;;;;11.24;57.80;95446.13;4820577;29;20046;-68
2021/06/01 20:43:29;;;;;;;5.25;2.95;;;;;;;11.20;57.66;95446.97;4823133;29;20061;-68
2021/06/01 20:45:55;;;;;;;7.45;3.28;;;;;;;11.10;58.46;95442.53;4821926;29;20163;-68
2021/06/01 20:48:24;;;;;;;8.10;3.45;;;;;;;11.01;59.40;95444.19;4823902;29;20054;-68
2021/06/01 20:50:52;;;;;;;5.47;3.28;;;;;;;10.90;59.48;95444.25;4820741;29;20149;-67
2021/06/01 20:53:18;;;;;;;4.80;3.35;;;;;;;10.84;59.93;95440.06;4820630;29;20439;-68
2021/06/01 20:55:47;;;;;;;6.00;3.47;;;;;;;10.77;59.97;95439.56;4820545;29;20050;-67
2021/06/01 20:58:20;;;;;;;6.80;3.40;;;;;;;10.69;60.31;95442.81;4820154;29;20074;-67
2021/06/01 21:00:50;;;;;;;5.90;3.45;;;;;;;10.63;60.87;95439.41;4822059;29;20041;-67
2021/06/01 21:03:21;;;;;;;5.20;3.25;;;;;;;10.55;61.66;95432.84;4821660;29;20059;-67
2021/06/01 21:05:47;;;;;;;8.80;3.45;;;;;;;10.49;61.54;95436.56;4820118;29;20042;-67
2021/06/01 21:08:16;;;;;;;9.30;3.70;;;;;;;10.42;62.05;95438.69;4820715;29;20061;-68
2021/06/01 21:10:42;;;;;;;7.20;3.22;;;;;;;10.43;62.14;95440.28;4822135;29;20054;-68
2021/06/01 21:13:09;;;;;;;5.88;3.40;;;;;;;10.35;62.59;95444.25;4822547;29;20054;-68
2021/06/01 21:15:35;;;;;;;10.70;3.75;;;;;;;10.30;62.37;95440.81;4821040;29;20046;-68
2021/06/01 21:18:00;;;;;;;8.00;3.60;;;;;;;10.21;62.65;95438.75;4822345;29;20485;-67
2021/06/01 21:20:27;;;;;;;7.47;3.67;;;;;;;10.15;62.88;95452.94;4821723;29;20576;-68
2021/06/01 21:22:54;;;;;;;8.27;3.83;;;;;;;10.11;63.22;95449.28;4822563;29;20416;-68
2021/06/01 21:25:22;;;;;;;5.82;3.50;;;;;;;10.09;63.34;95446.16;4829165;29;20090;-67
2021/06/01 21:27:52;;;;;;;8.93;4.22;;;;;;;10.06;63.55;95446.69;4831949;29;20072;-68
2021/06/01 21:30:18;;;;;;;8.70;3.88;;;;;;;10.04;64.05;95443.50;4833119;29;20232;-67
2021/06/01 21:32:50;;;;;;;7.50;4.05;;;;;;;10.00;64.16;95435.38;4821689;29;20050;-67
2021/06/01 21:35:16;;;;;;;7.88;3.90;;;;;;;9.99;64.28;95435.66;4822420;29;20071;-67
2021/06/01 21:37:45;;;;;;;7.25;4.03;;;;;;;10.00;64.21;95430.13;4820813;29;20081;-67
2021/06/01 21:40:13;;;;;;;7.13;3.50;;;;;;;10.00;64.26;95434.63;4821603;29;20054;-67
2021/06/01 21:42:39;;;;;;;5.47;3.95;;;;;;;9.93;63.67;95436.69;4829516;29;20095;-67
2021/06/01 21:45:10;;;;;;;8.88;4.03;;;;;;;9.84;63.91;95442.53;4823190;29;20054;-67
2021/06/01 21:47:38;;;;;;;7.95;3.90;;;;;;;9.79;64.61;95432.00;4825409;29;20050;-67
2021/06/01 21:50:07;;;;;;;9.13;3.63;;;;;;;9.77;64.38;95434.13;4821996;29;20469;-67
2021/06/01 21:52:33;;;;;;;8.85;4.03;;;;;;;9.73;64.53;95433.06;4821228;29;20046;-67
2021/06/01 21:54:59;;;;;;;7.13;4.03;;;;;;;9.66;65.10;95430.72;4820663;29;20065;-67
2021/06/01 21:57:24;;;;;;;6.60;4.03;;;;;;;9.71;65.53;95435.16;4821574;29;20094;-67
2021/06/01 21:59:50;;;;;;;9.70;4.15;;;;;;;9.77;65.33;95434.13;4815792;29;20524;-67
2021/06/01 22:02:17;;;;;;;6.20;4.13;;;;;;;9.72;65.88;95436.75;4829247;29;20043;-67
2021/06/01 22:04:44;;;;;;;7.43;4.30;;;;;;;9.67;66.21;95434.94;4831701;29;20073;-67
2021/06/01 22:07:09;;;;;;;7.45;3.92;;;;;;;9.57;66.52;95434.13;4832284;29;20058;-67
2021/06/01 22:09:35;;;;;;;7.57;4.18;;;;;;;9.52;66.31;95433.09;4829394;29;20110;-67
2021/06/01 22:12:04;;;;;;;6.72;4.32;;;;;;;9.38;67.14;95432.06;4821409;29;20053;-67
2021/06/01 22:14:30;;;;;;;5.13;3.60;;;;;;;9.33;67.06;95421.56;4821347;29;20055;-67
2021/06/01 22:17:02;;;;;;;8.73;4.07;;;;;;;9.25;67.05;95422.06;4819630;29;20098;-67
2021/06/01 22:19:30;;;;;;;7.43;4.20;;;;;;;9.21;67.39;95431.50;4819519;29;20198;-67
2021/06/01 22:21:56;;;;;;;6.85;4.35;;;;;;;9.09;67.78;95414.19;4827368;29;20079;-67
2021/06/01 22:24:24;;;;;;;6.20;4.38;;;;;;;8.96;68.44;95425.19;4824578;29;20059;-67
2021/06/01 22:26:52;;;;;;;6.85;3.95;;;;;;;8.82;68.83;95425.72;4822686;29;20059;-67
2021/06/01 22:29:18;;;;;;;6.60;3.97;;;;;;;8.70;69.96;95427.78;4820216;29;20177;-67
2021/06/01 22:31:45;;;;;;;7.55;4.40;;;;;;;8.65;70.37;95431.19;4820539;29;20054;-67
2021/06/01 22:34:13;;;;;;;5.85;4.10;;;;;;;8.58;70.33;95425.38;4819887;29;20050;-67
2021/06/01 22:36:40;;;;;;;7.43;4.45;;;;;;;8.51;70.54;95427.47;4820380;29;20050;-67
2021/06/01 22:39:12;;;;;;;9.25;4.53;;;;;;;8.41;70.87;95425.56;4819849;29;20334;-67
2021/06/01 22:41:39;;;;;;;7.40;4.70;;;;;;;8.40;71.00;95429.22;4820881;29;20062;-67
2021/06/01 22:44:09;;;;;;;8.40;4.30;;;;;;;8.30;71.06;95430.00;4830523;29;20060;-67
2021/06/01 22:46:35;;;;;;;6.38;4.10;;;;;;;8.28;71.73;95426.03;4824683;29;20058;-67
2021/06/01 22:49:04;;;;;;;7.20;4.65;;;;;;;8.13;72.24;95424.94;4820727;29;20110;-67
2021/06/01 22:51:32;;;;;;;6.43;4.15;;;;;;;8.11;71.90;95421.78;4819627;29;20622;-67
2021/06/01 22:54:01;;;;;;;7.15;4.13;;;;;;;8.09;72.30;95418.63;4820697;29;20068;-67
2021/06/01 22:56:27;;;;;;;6.97;4.45;;;;;;;7.97;72.97;95421.47;4820344;29;20050;-67
2021/06/01 22:58:55;;;;;;;9.55;4.65;;;;;;;7.90;73.67;95420.09;4821155;29;20397;-67
2021/06/01 23:01:28;;;;;;;8.07;4.53;;;;;;;7.85;72.75;95417.47;4819690;29;20042;-67
2021/06/01 23:03:57;;;;;;;6.88;4.38;;;;;;;7.79;73.32;95414.78;4824700;29;20434;-67
2021/06/01 23:06:26;;;;;;;9.57;4.50;;;;;;;7.76;74.36;95410.06;4820232;29;20058;-67
2021/06/01 23:08:54;;;;;;;8.88;4.53;;;;;;;7.65;74.18;95418.13;4819644;29;20058;-67
2021/06/01 23:11:24;;;;;;;11.70;5.28;;;;;;;7.68;73.62;95418.41;4820330;29;20042;-67
2021/06/01 23:14:04;;;;;;;11.00;4.90;;;;;;;7.63;74.15;95418.38;4820765;29;20069;-67
2021/06/01 23:16:36;;;;;;;9.02;5.75;;;;;;;7.58;74.35;95418.34;4819887;29;20365;-67
2021/06/01 23:19:04;;;;;;;9.70;5.20;;;;;;;7.52;74.44;95419.34;4819351;29;20046;-67
2021/06/01 23:21:31;;;;;;;8.10;5.00;;;;;;;7.50;74.50;95421.41;4819137;29;20327;-67
2021/06/01 23:23:57;;;;;;;10.45;6.00;;;;;;;7.40;74.12;95416.91;4820373;29;20047;-67
2021/06/01 23:26:29;;;;;;;9.77;5.10;;;;;;;7.36;74.11;95411.38;4825904;29;20058;-67
2021/06/01 23:28:55;;;;;;;8.88;5.50;;;;;;;7.35;73.46;95415.03;4803277;29;20055;-67
2021/06/01 23:31:23;;;;;;;10.90;5.78;;;;;;;7.29;73.65;95416.03;4819855;29;20054;-67
2021/06/01 23:33:49;;;;;;;7.95;4.70;;;;;;;7.23;74.26;95422.28;4820020;29;20042;-67
2021/06/01 23:36:41;;;;;;;9.30;4.97;;;;;;;7.19;74.40;95421.97;4819799;29;20385;-67
2021/06/01 23:39:20;;;;;;;9.93;5.03;;;;;;;7.10;74.62;95413.81;4825366;29;20062;-67
2021/06/01 23:41:50;;;;;;;7.63;5.15;;;;;;;7.00;75.58;95413.72;4826409;29;20235;-67
2021/06/01 23:44:17;;;;;;;8.63;4.97;;;;;;;6.98;75.26;95405.31;4829701;29;20442;-67
2021/06/01 23:46:43;;;;;;;7.65;4.80;;;;;;;6.89;75.57;95415.44;4822150;29;20050;-67
2021/06/01 23:51:53;;;;;;;9.80;4.72;;;;;;;6.74;76.64;95405.63;4821251;29;20061;-67
2021/06/01 23:54:20;;;;;;;6.40;4.47;;;;;;;6.65;76.92;95401.91;4823349;29;20050;-67
2021/06/01 23:56:46;;;;;;;7.95;4.55;;;;;;;6.67;76.33;95410.28;4823005;29;20508;-67
2021/06/01 23:59:14;;;;;;;7.78;4.80;;;;;;;6.71;76.25;95406.13;4821971;29;20516;-67
